Latest Weather Observations for Geelong Racecourse

IDV60801

Issued at 10:32 pm EST Wednesday 26 July 2017 (issued every 30 minutes, with the page automatically refreshed every 10 minutes)

About weather observations | Map of weather stations | Latest weather observations for VIC | Other Formats
Station Details ID: 087184 Name: GEELONG RACECOURSE Lat: -38.17 Lon: 144.38 Height: 12.9 m
Data from the previous 72 hours. | See also: Recent months at Geelong Racecourse
Date/Time
EST
Temp
°C
App
Temp
°C
Dew
Point
°C
Rel
Hum
%
Delta-T
°C
Wind Press
QNH
hPa
Press
MSL
hPa
Rain since
9am
mm
Dir  Spd
km/h
Gust
km/h
Spd
kts
Gust
kts
26/10:30pm 8.4 6.4 7.3 93 0.5 NW 7 13 4 7 1023.6 1023.6 0.2
26/10:00pm 8.2 5.8 7.1 93 0.5 WNW 9 13 5 7 1023.5 1023.5 0.2
26/09:30pm 7.2 5.0 6.1 93 0.5 NW 7 9 4 5 1023.4 1023.4 0.2
26/09:00pm 7.8 5.9 6.7 93 0.5 NW 6 7 3 4 1023.2 1023.2 0.2
26/08:30pm 6.6 4.8 5.6 93 0.4 W 4 6 2 3 1023.1 1023.1 0.2
26/08:00pm 7.5 6.3 6.4 93 0.5 SW 2 4 1 2 1022.9 1022.9 0.2
26/07:30pm 8.0 6.3 6.0 87 0.9 WSW 4 6 2 3 1022.7 1022.7 0.2
26/07:00pm 8.6 6.4 6.2 85 1.1 WSW 7 9 4 5 1022.5 1022.5 0.2
26/06:30pm 9.4 7.6 7.3 87 1.0 W 6 6 3 3 1022.3 1022.3 0.2
26/06:00pm 10.0 9.6 8.1 88 0.9 CALM 0 4 0 2 1022.0 1022.0 0.2
26/05:30pm 10.6 9.2 7.3 80 1.6 S 4 7 2 4 1021.7 1021.7 0.2
26/05:00pm 11.8 9.6 7.9 77 1.9 SSW 9 13 5 7 1021.2 1021.2 0.2
26/04:30pm 12.3 9.7 7.8 74 2.2 SSW 11 17 6 9 1020.8 1020.8 0.2
26/04:00pm 12.6 10.3 8.9 78 1.8 SSW 11 15 6 8 1020.4 1020.4 0.2
26/03:30pm 12.6 9.8 8.5 76 2.0 SSW 13 19 7 10 1020.1 1020.1 0.2
26/03:00pm 13.0 9.4 8.5 74 2.2 SSW 17 24 9 13 1019.8 1019.8 0.2
26/02:30pm 12.3 9.1 8.6 78 1.8 SSW 15 26 8 14 1019.5 1019.5 0.2
26/02:00pm 13.2 7.9 6.8 65 3.1 SW 24 33 13 18 1019.2 1019.2 0.2
26/01:30pm 13.3 11.0 10.5 83 1.5 SW 13 20 7 11 1018.9 1018.9 0.2
26/01:00pm 13.6 9.9 9.6 77 2.0 SW 19 24 10 13 1018.7 1018.7 0.0
26/12:30pm 12.4 8.4 9.2 81 1.6 SSW 20 30 11 16 1018.7 1018.7 0.0
26/12:00pm 14.4 9.0 7.9 65 3.2 WSW 26 39 14 21 1018.4 1018.4 0.0
26/11:30am 14.3 8.6 8.5 68 2.9 W 28 43 15 23 1018.2 1018.2 0.0
26/11:00am 14.0 9.5 10.0 77 2.1 W 24 33 13 18 1018.1 1018.1 0.0
26/10:30am 12.6 8.9 10.3 86 1.2 W 20 30 11 16 1017.8 1017.8 0.0
26/10:00am 12.7 9.3 11.3 91 0.7 W 20 32 11 17 1017.2 1017.2 0.0
26/09:30am 12.1 8.2 10.8 92 0.7 W 22 33 12 18 1016.8 1016.8 0.0
26/09:00am 11.4 7.7 10.3 93 0.6 W 20 33 11 18 1016.4 1016.4 0.0
26/08:30am 11.0 6.5 9.9 93 0.6 WNW 24 39 13 21 1015.7 1015.7 0.0
26/08:00am 10.7 6.5 9.6 93 0.6 WNW 22 37 12 20 1015.1 1015.1 0.0
26/07:30am 10.5 6.2 9.4 93 0.5 WNW 22 30 12 16 1014.8 1014.8 0.0
26/07:00am 10.4 6.1 9.3 93 0.5 WNW 22 35 12 19 1014.3 1014.3 0.0
26/06:30am 10.7 6.1 9.5 92 0.6 WNW 24 46 13 25 1013.6 1013.6 0.0
26/06:00am 10.7 5.7 9.6 93 0.6 WNW 26 39 14 21 1013.1 1013.1 0.0
26/05:30am 11.0 6.8 9.8 92 0.6 WNW 22 35 12 19 1012.8 1012.8 0.0
26/05:00am 11.0 7.2 9.8 92 0.6 WNW 20 28 11 15 1012.8 1012.8 0.0
26/04:30am 11.1 6.9 9.7 91 0.7 WNW 22 39 12 21 1012.5 1012.5 0.0
26/04:00am 10.8 6.5 9.2 90 0.8 WNW 22 43 12 23 1012.1 1012.1 0.0
26/03:30am 10.9 6.6 9.2 89 0.8 WNW 22 35 12 19 1012.0 1012.0 0.0
26/03:00am 10.9 6.9 9.0 88 0.9 WNW 20 33 11 18 1011.9 1011.9 0.0
26/02:30am 11.2 7.1 8.6 84 1.3 WNW 20 43 11 23 1012.0 1012.0 0.0
26/02:00am 11.2 7.6 8.2 82 1.5 WNW 17 30 9 16 1011.8 1011.8 0.0
26/01:30am 11.1 7.0 7.8 80 1.6 WNW 19 33 10 18 1011.5 1011.5 0.0
26/01:00am 11.2 7.1 7.7 79 1.7 WNW 19 39 10 21 1011.6 1011.6 0.0
26/12:30am 11.6 7.0 8.1 79 1.7 WNW 22 37 12 20 1011.5 1011.5 0.0
26/12:00am 11.7 7.1 8.0 78 1.8 WNW 22 33 12 18 1011.6 1011.6 0.0
 
Date/Time
EST
Temp
°C
App
Temp
°C
Dew
Point
°C
Rel
Hum
%
Delta-T
°C
Wind Press
QNH
hPa
Press
MSL
hPa
Rain since
9am
mm
Dir  Spd
km/h
Gust
km/h
Spd
kts
Gust
kts
25/11:30pm 11.8 7.6 8.3 79 1.7 WNW 20 35 11 19 1011.4 1011.4 0.0
25/11:00pm 11.9 7.7 8.4 79 1.7 WNW 20 32 11 17 1011.6 1011.6 0.0
25/10:30pm 12.1 6.8 8.6 79 1.7 NW 26 41 14 22 1011.3 1011.3 0.0
25/10:00pm 12.0 6.7 8.5 79 1.7 NW 26 39 14 21 1011.2 1011.2 0.0
25/09:30pm 11.9 7.0 8.6 80 1.6 NW 24 39 13 21 1011.4 1011.4 0.0
25/09:00pm 12.1 8.2 8.6 79 1.7 NW 19 32 10 17 1011.7 1011.7 0.0
25/08:30pm 12.5 8.5 8.4 76 2.0 NW 19 26 10 14 1011.8 1011.8 0.0
25/08:00pm 13.1 8.3 9.0 76 2.1 NW 24 37 13 20 1011.4 1011.4 0.0
25/07:30pm 12.7 9.0 10.1 84 1.3 NW 20 26 11 14 1011.6 1011.6 0.0
25/07:00pm 12.5 8.6 9.5 82 1.5 NW 20 30 11 16 1011.5 1011.5 0.0
25/06:30pm 12.5 8.5 8.4 76 2.0 NW 19 28 10 15 1011.5 1011.5 0.0
25/06:00pm 12.4 8.9 7.3 71 2.5 NW 15 26 8 14 1011.1 1011.1 0.0
25/05:30pm 13.0 8.9 6.4 64 3.1 NW 17 24 9 13 1011.2 1011.2 0.0
25/05:00pm 14.6 10.5 8.5 67 3.1 WNW 20 28 11 15 1011.0 1011.0 0.0
25/04:30pm 14.7 12.2 11.1 79 1.9 NW 15 28 8 15 1011.0 1011.0 0.0
25/04:00pm 15.2 10.3 9.8 70 2.8 WNW 26 41 14 22 1011.1 1011.1 0.0
25/03:30pm 17.2 13.0 7.5 53 4.9 WNW 19 33 10 18 1010.5 1010.5 0.0
25/03:00pm 18.5 13.0 7.6 49 5.5 WNW 26 37 14 20 1010.5 1010.5 0.0
25/02:30pm 18.6 13.4 7.4 48 5.7 WNW 24 39 13 21 1010.5 1010.5 0.0
25/02:00pm 18.9 14.8 8.0 49 5.6 NW 19 30 10 16 1010.6 1010.6 0.0
25/01:30pm 18.7 13.6 7.8 49 5.6 NW 24 33 13 18 1010.9 1010.9 0.0
25/01:00pm 18.9 14.1 7.4 47 5.8 WNW 22 35 12 19 1011.3 1011.3 0.0
25/12:30pm 18.9 13.3 7.0 46 6.0 NW 26 39 14 21 1012.0 1012.0 0.0
25/12:00pm 18.7 13.4 6.9 46 5.9 NW 24 35 13 19 1012.5 1012.5 0.0
25/11:30am 18.4 14.0 7.5 49 5.5 NNW 20 32 11 17 1013.0 1013.0 0.0
25/11:00am 15.8 13.4 8.5 62 3.7 NNE 11 19 6 10 1013.7 1013.7 0.0
25/10:30am 14.6 10.8 7.6 63 3.5 N 17 28 9 15 1013.8 1013.8 0.0
25/10:00am 12.8 10.3 8.3 74 2.2 NE 11 24 6 13 1014.1 1014.1 0.0
25/09:30am 11.5 9.1 8.5 82 1.5 NNE 11 15 6 8 1014.6 1014.6 0.0
25/09:00am 10.1 8.1 8.5 90 0.8 NE 9 15 5 8 1014.6 1014.6 0.4
25/08:30am 10.2 8.2 8.5 89 0.8 NE 9 13 5 7 1014.8 1014.8 0.4
25/08:00am 9.9 7.9 8.7 92 0.6 NE 9 15 5 8 1014.8 1014.8 0.4
25/07:30am 9.7 6.5 8.5 92 0.6 NNE 15 19 8 10 1015.0 1015.0 0.4
25/07:00am 9.4 7.3 8.3 93 0.5 NNE 9 17 5 9 1014.8 1014.8 0.4
25/06:30am 9.6 7.9 8.4 92 0.6 NNE 7 13 4 7 1014.9 1014.9 0.4
25/06:00am 9.6 7.5 8.4 92 0.6 N 9 13 5 7 1015.2 1015.2 0.4
25/05:30am 9.3 7.6 8.2 93 0.5 N 7 9 4 5 1015.3 1015.3 0.4
25/05:00am 9.3 7.2 8.2 93 0.5 N 9 11 5 6 1015.4 1015.4 0.4
25/04:30am 9.6 7.2 8.5 93 0.5 NNW 11 15 6 8 1015.5 1015.5 0.4
25/04:00am 10.3 6.9 9.1 92 0.6 NNW 17 20 9 11 1015.7 1015.7 0.4
25/03:30am 10.2 6.4 9.1 93 0.5 NNW 19 24 10 13 1015.6 1015.6 0.4
25/03:00am 9.9 6.8 8.8 93 0.5 NNW 15 20 8 11 1016.0 1016.0 0.4
25/02:30am 10.3 6.9 9.2 93 0.5 NNW 17 22 9 12 1016.5 1016.5 0.4
25/02:00am 10.3 6.9 9.2 93 0.5 NNW 17 24 9 13 1016.7 1016.7 0.4
25/01:30am 10.4 7.8 9.5 94 0.5 NW 13 20 7 11 1016.8 1016.8 0.4
25/01:00am 8.4 6.7 7.6 95 0.4 N 6 7 3 4 1017.2 1017.2 0.4
25/12:30am 8.2 6.5 7.4 95 0.4 N 6 7 3 4 1017.4 1017.4 0.4
25/12:00am 7.5 6.7 6.6 94 0.4 CALM 0 4 0 2 1017.8 1017.8 0.4
 
Date/Time
EST
Temp
°C
App
Temp
°C
Dew
Point
°C
Rel
Hum
%
Delta-T
°C
Wind Press
QNH
hPa
Press
MSL
hPa
Rain since
9am
mm
Dir  Spd
km/h
Gust
km/h
Spd
kts
Gust
kts
24/11:30pm 8.4 7.8 7.5 94 0.4 CALM 0 0 0 0 1018.0 1018.0 0.4
24/11:00pm 8.6 8.1 7.7 94 0.4 CALM 0 0 0 0 1018.2 1018.2 0.4
24/10:30pm 8.4 7.8 7.5 94 0.4 CALM 0 2 0 1 1018.5 1018.5 0.4
24/10:00pm 8.9 7.3 8.0 94 0.4 NNW 6 7 3 4 1018.6 1018.6 0.4
24/09:30pm 8.4 7.1 7.5 94 0.4 NW 4 4 2 2 1018.5 1018.5 0.4
24/09:00pm 8.8 7.5 7.7 93 0.5 NW 4 6 2 3 1018.4 1018.4 0.4
24/08:30pm 9.1 8.3 8.0 93 0.5 WNW 2 4 1 2 1018.5 1018.5 0.4
24/08:00pm 10.2 8.9 9.1 93 0.5 NW 6 9 3 5 1018.4 1018.4 0.4
24/07:30pm 10.8 10.0 9.6 92 0.6 NNW 4 6 2 3 1018.3 1018.3 0.4
24/07:00pm 11.0 10.2 9.8 92 0.6 NNW 4 6 2 3 1018.2 1018.2 0.4
24/06:30pm 11.1 10.0 9.9 92 0.6 NW 6 6 3 3 1018.1 1018.1 0.4
24/06:00pm 11.7 10.3 8.9 83 1.4 NNW 6 7 3 4 1017.8 1017.8 0.4
24/05:30pm 12.4 10.9 8.3 76 2.0 NW 6 9 3 5 1017.8 1017.8 0.4
24/05:00pm 13.8 11.7 8.4 70 2.7 WNW 9 15 5 8 1017.6 1017.6 0.4
24/04:30pm 14.5 11.4 8.7 68 2.9 WNW 15 22 8 12 1017.5 1017.5 0.4
24/04:00pm 14.6 11.8 10.0 74 2.4 WNW 15 22 8 12 1017.5 1017.5 0.4
24/03:30pm 14.5 12.5 11.5 82 1.6 WNW 13 19 7 10 1017.5 1017.5 0.4
24/03:00pm 14.0 11.8 12.0 88 1.1 NW 15 24 8 13 1017.6 1017.6 0.4
24/02:30pm 13.6 12.3 12.5 93 0.6 NW 11 17 6 9 1017.7 1017.7 0.4
24/02:00pm 14.1 10.0 8.5 69 2.8 WNW 20 28 11 15 1017.8 1017.8 0.0
24/01:30pm 14.5 11.6 11.1 80 1.8 WNW 17 33 9 18 1018.2 1018.2 0.0
24/01:00pm 15.2 11.5 10.0 71 2.7 NW 20 30 11 16 1018.4 1018.4 0.0
24/12:30pm 14.6 11.0 9.8 73 2.5 WNW 19 26 10 14 1018.7 1018.7 0.0
24/12:00pm 12.9 11.5 10.8 87 1.1 WNW 9 13 5 7 1019.1 1019.1 0.0
24/11:30am 13.1 11.2 11.8 92 0.7 NW 13 17 7 9 1019.5 1019.5 0.0
24/11:00am 12.1 10.3 11.0 93 0.6 WNW 11 20 6 11 1020.0 1020.0 0.0
24/10:30am 12.4 10.3 11.3 93 0.6 WNW 13 20 7 11 1020.0 1020.0 0.0
24/10:00am 10.6 8.1 9.7 94 0.5 WNW 13 20 7 11 1019.9 1019.9 0.0
24/09:30am 9.6 6.9 8.8 95 0.4 NW 13 20 7 11 1019.9 1019.9 0.0
24/09:00am 8.8 6.3 8.2 96 0.3 NW 11 17 6 9 1019.4 1019.4 4.8
24/08:30am 8.2 5.9 7.6 96 0.3 NW 9 13 5 7 1019.0 1019.0 4.8
24/08:00am 7.5 5.5 6.9 96 0.3 WNW 7 11 4 6 1018.8 1018.8 4.8
24/07:30am 7.7 5.7 7.1 96 0.3 WNW 7 13 4 7 1018.4 1018.4 4.8
24/07:00am 8.1 5.4 7.5 96 0.3 WNW 11 17 6 9 1018.2 1018.2 4.8
24/06:30am 8.0 5.7 7.4 96 0.3 W 9 17 5 9 1018.2 1018.2 4.8
24/06:00am 8.2 6.3 7.6 96 0.3 W 7 15 4 8 1018.0 1018.0 4.8
24/05:30am 8.4 5.8 7.8 96 0.3 W 11 17 6 9 1017.9 1017.9 4.8
24/05:00am 8.5 5.9 7.9 96 0.3 WNW 11 15 6 8 1017.5 1017.5 4.8
24/04:30am 8.4 5.0 7.8 96 0.3 WNW 15 20 8 11 1017.5 1017.5 4.8
24/04:00am 8.8 6.7 8.2 96 0.3 WNW 9 15 5 8 1017.2 1017.2 4.8
24/03:30am 8.7 6.6 8.1 96 0.3 WNW 9 13 5 7 1017.1 1017.1 4.8
24/03:00am 8.7 6.9 8.1 96 0.3 WNW 7 13 4 7 1017.2 1017.2 4.8
24/02:30am 8.9 6.0 8.3 96 0.3 W 13 17 7 9 1016.9 1016.9 4.8
24/02:00am 9.1 7.1 8.5 96 0.3 W 9 17 5 9 1016.7 1016.7 4.8
24/01:30am 9.0 6.5 8.4 96 0.3 WNW 11 17 6 9 1016.5 1016.5 4.8
24/01:00am 8.4 6.6 7.8 96 0.3 WNW 7 11 4 6 1016.4 1016.4 4.8
24/12:30am 7.6 5.8 7.0 96 0.3 W 6 7 3 4 1016.4 1016.4 4.8
24/12:00am 8.2 6.3 7.6 96 0.3 WSW 7 11 4 6 1016.5 1016.5 4.8
 
Date/Time
EST
Temp
°C
App
Temp
°C
Dew
Point
°C
Rel
Hum
%
Delta-T
°C
Wind Press
QNH
hPa
Press
MSL
hPa
Rain since
9am
mm
Dir  Spd
km/h
Gust
km/h
Spd
kts
Gust
kts
23/11:30pm 8.6 6.4 8.0 96 0.3 WNW 9 11 5 6 1016.2 1016.2 4.8
23/11:00pm 8.4 6.1 7.6 95 0.4 WNW 9 11 5 6 1016.1 1016.1 4.8

Other Formats:

Comma delimited format used in spreadsheet applications
http://www.bom.gov.au/fwo/IDV60801/IDV60801.94857.axf

JavaScript Object Notation format (JSON) in row-major order
http://www.bom.gov.au/fwo/IDV60801/IDV60801.94857.json